Time;durP1;ratioP1;P1;durP2;ratioP2;P2;SDS_P1;SDS_P2;PMS_P1;PMS_P2;Temp;Humidity;BMP_temperature;BMP_pressure;BME280_temperature;BME280_humidity;BME280_pressure;Samples;Min_cycle;Max_cycle;Signal;HPM_P1;HPM_P2
2023/04/15 00:03:28;;;;;;;;;;;;;;;8.54;68.2207;101027;;;;-73
2023/04/15 00:03:38;;;;;;;7.3;3.4;;;;;;;;;;;;;-73
2023/04/15 00:08:28;;;;;;;;;;;;;;;8.52;68.22754;101035.4;;;;-74
2023/04/15 00:13:27;;;;;;;;;;;;;;;8.49;68.41113;101031.5;;;;-72
2023/04/15 00:23:28;;;;;;;;;;;;;;;8.39;68.24121;101030.2;;;;-71
2023/04/15 00:28:28;;;;;;;;;;;;;;;8.37;68.61328;101025;;;;-72
2023/04/15 00:33:27;;;;;;;;;;;;;;;8.31;68.48242;101027.5;;;;-73
2023/04/15 00:33:39;;;;;;;7.4;3.1;;;;;;;;;;;;;-73
2023/04/15 00:38:27;;;;;;;;;;;;;;;8.26;68.45313;101032.1;;;;-71
2023/04/15 00:43:28;;;;;;;;;;;;;;;8.22;68.48047;101030.7;;;;-72
2023/04/15 00:48:27;;;;;;;;;;;;;;;8.21;68.36719;101037.2;;;;-72
2023/04/15 00:53:27;;;;;;;;;;;;;;;8.14;68.42285;101035.3;;;;-72
2023/04/15 00:58:27;;;;;;;;;;;;;;;8.11;68.4082;101034.5;;;;-71
2023/04/15 01:03:27;;;;;;;;;;;;;;;8.06;68.33301;101042.5;;;;-72
2023/04/15 01:03:43;;;;;;;7.2;3.3;;;;;;;;;;;;;-72
2023/04/15 01:08:29;;;;;;;;;;;;;;;8.07;68.32324;101040.1;;;;-73
2023/04/15 01:13:31;;;;;;;;;;;;;;;7.97;68.57227;101043.3;;;;-72
2023/04/15 01:18:27;;;;;;;;;;;;;;;7.96;68.44922;101041.7;;;;-72
2023/04/15 01:23:28;;;;;;;;;;;;;;;7.92;68.66309;101038.9;;;;-71
2023/04/15 01:28:27;;;;;;;;;;;;;;;7.92;68.81738;101042.3;;;;-73
2023/04/15 01:33:30;;;;;;;;;;;;;;;7.84;68.82813;101046.6;;;;-71
2023/04/15 01:33:41;;;;;;;6.5;3;;;;;;;;;;;;;-74
2023/04/15 01:38:27;;;;;;;;;;;;;;;7.83;68.87109;101043;;;;-72
2023/04/15 01:43:30;;;;;;;;;;;;;;;7.8;68.83203;101046.6;;;;-72
2023/04/15 01:48:30;;;;;;;;;;;;;;;7.78;69.09473;101053.5;;;;-71
2023/04/15 01:53:28;;;;;;;;;;;;;;;7.73;68.61035;101055.6;;;;-72
2023/04/15 01:58:27;;;;;;;;;;;;;;;7.71;68.86328;101060.9;;;;-73
2023/04/15 02:03:30;;;;;;;;;;;;;;;7.67;68.95508;101064.1;;;;-72
2023/04/15 02:03:42;;;;;;;6.5;2.9;;;;;;;;;;;;;-73
2023/04/15 02:08:27;;;;;;;;;;;;;;;7.65;69.18359;101062.9;;;;-72
2023/04/15 02:13:27;;;;;;;;;;;;;;;7.6;68.98926;101064.7;;;;-72
2023/04/15 02:18:27;;;;;;;;;;;;;;;7.57;69.08398;101064.3;;;;-72
2023/04/15 02:23:28;;;;;;;;;;;;;;;7.57;69.3584;101068.7;;;;-72
2023/04/15 02:28:30;;;;;;;;;;;;;;;7.51;69.42676;101072.4;;;;-71
2023/04/15 02:33:31;;;;;;;;;;;;;;;7.52;69.4834;101076;;;;-71
2023/04/15 02:33:45;;;;;;;6.5;2.9;;;;;;;;;;;;;-73
2023/04/15 02:38:29;;;;;;;;;;;;;;;7.49;69.40137;101078.5;;;;-72
2023/04/15 02:43:32;;;;;;;;;;;;;;;7.46;69.91504;101080;;;;-72
2023/04/15 02:48:27;;;;;;;;;;;;;;;7.46;70.10059;101082.2;;;;-73
2023/04/15 02:53:28;;;;;;;;;;;;;;;7.42;70.2168;101095.6;;;;-73
2023/04/15 02:58:27;;;;;;;;;;;;;;;7.4;70.23535;101098.6;;;;-72
2023/04/15 03:03:28;;;;;;;;;;;;;;;7.4;70.3877;101100.5;;;;-73
2023/04/15 03:03:44;;;;;;;5.8;2.8;;;;;;;;;;;;;-72
2023/04/15 03:08:28;;;;;;;;;;;;;;;7.36;70.68066;101099.5;;;;-73
2023/04/15 03:13:30;;;;;;;;;;;;;;;7.35;70.7002;101101.5;;;;-72
2023/04/15 03:18:29;;;;;;;;;;;;;;;7.35;70.74316;101109.8;;;;-73
2023/04/15 03:23:28;;;;;;;;;;;;;;;7.36;70.83496;101115.9;;;;-72
2023/04/15 03:28:31;;;;;;;;;;;;;;;7.33;70.5;101119.1;;;;-72
2023/04/15 03:33:30;;;;;;;;;;;;;;;7.32;70.90527;101118.7;;;;-72
2023/04/15 03:33:45;;;;;;;5.9;3.2;;;;;;;;;;;;;-73
2023/04/15 03:38:28;;;;;;;;;;;;;;;7.28;70.95215;101128.3;;;;-72
2023/04/15 03:43:27;;;;;;;;;;;;;;;7.28;71.16309;101134.2;;;;-72
2023/04/15 03:48:27;;;;;;;;;;;;;;;7.25;71.20117;101134.7;;;;-71
2023/04/15 03:53:27;;;;;;;;;;;;;;;7.24;71.17773;101141.9;;;;-73
2023/04/15 03:58:27;;;;;;;;;;;;;;;7.22;70.97656;101143.8;;;;-72
2023/04/15 04:03:29;;;;;;;;;;;;;;;7.2;71.05078;101151.1;;;;-72
2023/04/15 04:03:49;;;;;;;7.4;3.4;;;;;;;;;;;;;-71
2023/04/15 04:08:27;;;;;;;;;;;;;;;7.17;71.26465;101155.6;;;;-72
2023/04/15 04:13:27;;;;;;;;;;;;;;;7.14;71.29395;101164;;;;-72
2023/04/15 04:18:30;;;;;;;;;;;;;;;7.12;71.20215;101163.1;;;;-72
2023/04/15 04:23:27;;;;;;;;;;;;;;;7.08;71.54883;101170.6;;;;-73
2023/04/15 04:28:28;;;;;;;;;;;;;;;7.02;71.59277;101173.4;;;;-72
2023/04/15 04:33:27;;;;;;;;;;;;;;;7.04;71.73926;101178.6;;;;-72
2023/04/15 04:33:47;;;;;;;7.4;3.6;;;;;;;;;;;;;-72
2023/04/15 04:38:27;;;;;;;;;;;;;;;6.99;71.44531;101188.2;;;;-73
2023/04/15 04:43:30;;;;;;;;;;;;;;;6.97;71.5625;101196;;;;-72
2023/04/15 04:48:29;;;;;;;;;;;;;;;6.92;71.60938;101205.9;;;;-73
2023/04/15 04:53:29;;;;;;;;;;;;;;;6.93;71.82031;101215.6;;;;-72
2023/04/15 04:58:27;;;;;;;;;;;;;;;6.95;72.35156;101226.5;;;;-73
2023/04/15 05:03:27;;;;;;;;;;;;;;;6.93;72.48047;101237.8;;;;-73
2023/04/15 05:03:48;;;;;;;6.9;3.7;;;;;;;;;;;;;-72
2023/04/15 05:08:29;;;;;;;;;;;;;;;6.94;72.88867;101241.2;;;;-71
2023/04/15 05:13:30;;;;;;;;;;;;;;;6.93;72.42383;101250.3;;;;-74
2023/04/15 05:18:29;;;;;;;;;;;;;;;6.94;72.48145;101258.1;;;;-71
2023/04/15 05:23:27;;;;;;;;;;;;;;;6.92;72.70898;101270.4;;;;-72
2023/04/15 05:28:29;;;;;;;;;;;;;;;6.94;72.71387;101280.3;;;;-73
2023/04/15 05:33:29;;;;;;;;;;;;;;;6.96;72.51758;101282.7;;;;-73
2023/04/15 05:33:51;;;;;;;8.2;3.9;;;;;;;;;;;;;-72
2023/04/15 05:38:29;;;;;;;;;;;;;;;6.96;72.60742;101290.3;;;;-71
2023/04/15 05:43:27;;;;;;;;;;;;;;;6.97;73.09082;101296.8;;;;-71
2023/04/15 05:48:27;;;;;;;;;;;;;;;7.02;73.06738;101304.6;;;;-72
2023/04/15 05:53:30;;;;;;;;;;;;;;;7.11;72.96191;101316.2;;;;-71
2023/04/15 05:58:30;;;;;;;;;;;;;;;7.52;72.55664;101321.1;;;;-72
2023/04/15 06:03:30;;;;;;;;;;;;;;;7.91;72.87598;101330.6;;;;-73
2023/04/15 06:03:52;;;;;;;8.4;4.3;;;;;;;;;;;;;-73
2023/04/15 06:08:36;;;;;;;;;;;;;;;8.16;72.08984;101338.2;;;;-72
2023/04/15 06:13:27;;;;;;;;;;;;;;;8.37;71.70508;101349.9;;;;-72
2023/04/15 06:18:33;;;;;;;;;;;;;;;8.66;71.0459;101354.3;;;;-72
2023/04/15 06:23:27;;;;;;;;;;;;;;;8.94;70.26172;101362.1;;;;-72
2023/04/15 06:28:30;;;;;;;;;;;;;;;9.26;69.5957;101371.4;;;;-73
2023/04/15 06:33:29;;;;;;;;;;;;;;;9.53;68.91895;101383.5;;;;-71
2023/04/15 06:33:50;;;;;;;9.5;4.8;;;;;;;;;;;;;-71
2023/04/15 06:38:27;;;;;;;;;;;;;;;9.84;68.46777;101384.5;;;;-72
2023/04/15 06:43:35;;;;;;;;;;;;;;;10.03;69.26465;101395.8;;;;-72
2023/04/15 06:48:27;;;;;;;;;;;;;;;10.14;68.67188;101395.2;;;;-72
2023/04/15 06:53:30;;;;;;;;;;;;;;;10.31;69.34082;101403.6;;;;-72
2023/04/15 06:58:30;;;;;;;;;;;;;;;10.39;68.8457;101410.5;;;;-71
2023/04/15 07:03:28;;;;;;;;;;;;;;;10.59;68.98633;101411.6;;;;-73
2023/04/15 07:03:55;;;;;;;8.7;4.8;;;;;;;;;;;;;-72
2023/04/15 07:08:27;;;;;;;;;;;;;;;10.78;67.87207;101420.1;;;;-73
2023/04/15 07:13:30;;;;;;;;;;;;;;;11.12;67.11426;101419.8;;;;-73
2023/04/15 07:18:28;;;;;;;;;;;;;;;11.42;66.55957;101427.9;;;;-72
2023/04/15 07:23:28;;;;;;;;;;;;;;;11.77;66.46582;101430.1;;;;-74
2023/04/15 07:28:28;;;;;;;;;;;;;;;11.99;65.99805;101447.6;;;;-73
2023/04/15 07:33:30;;;;;;;;;;;;;;;12.33;65.0459;101461.5;;;;-71
2023/04/15 07:33:54;;;;;;;8;4.1;;;;;;;;;;;;;-72
2023/04/15 07:38:28;;;;;;;;;;;;;;;12.71;64.25391;101460.3;;;;-72
2023/04/15 07:43:27;;;;;;;;;;;;;;;12.79;64.26367;101471.7;;;;-72
2023/04/15 07:48:27;;;;;;;;;;;;;;;13.2;63.3623;101477.4;;;;-73
2023/04/15 07:53:29;;;;;;;;;;;;;;;13.4;63.25684;101488.6;;;;-72
2023/04/15 07:58:27;;;;;;;;;;;;;;;13.73;62.3291;101496.5;;;;-72
2023/04/15 08:03:28;;;;;;;;;;;;;;;13.9;62.90234;101500.6;;;;-73
2023/04/15 08:03:55;;;;;;;7.4;3.5;;;;;;;;;;;;;-73
2023/04/15 08:08:28;;;;;;;;;;;;;;;14.33;61.44922;101512.2;;;;-72
2023/04/15 08:13:27;;;;;;;;;;;;;;;14.54;61.2207;101511.9;;;;-72
2023/04/15 08:18:30;;;;;;;;;;;;;;;14.98;60.78809;101521.4;;;;-73
2023/04/15 08:23:31;;;;;;;;;;;;;;;15.06;60.29297;101526.4;;;;-72
2023/04/15 08:28:30;;;;;;;;;;;;;;;15.26;60.56641;101537.1;;;;-72
2023/04/15 08:33:27;;;;;;;;;;;;;;;15.63;59.51465;101538.5;;;;-73
2023/04/15 08:33:59;;;;;;;5.5;3;;;;;;;;;;;;;-73
2023/04/15 08:38:35;;;;;;;;;;;;;;;15.95;60.07422;101544.2;;;;-74
2023/04/15 08:43:30;;;;;;;;;;;;;;;16.17;58.69531;101547.1;;;;-71
2023/04/15 08:48:30;;;;;;;;;;;;;;;16.37;58.32715;101559;;;;-71
2023/04/15 08:53:27;;;;;;;;;;;;;;;16.56;57.86719;101565.5;;;;-71
2023/04/15 08:58:27;;;;;;;;;;;;;;;16.67;58.19727;101569;;;;-72
2023/04/15 09:03:31;;;;;;;;;;;;;;;16.91;57.5957;101576.3;;;;-72
2023/04/15 09:04:00;;;;;;;5.5;3.1;;;;;;;;;;;;;-74
2023/04/15 09:08:30;;;;;;;;;;;;;;;17.19;57.12402;101588;;;;-73
2023/04/15 09:13:29;;;;;;;;;;;;;;;17.49;56.85742;101592.5;;;;-73
2023/04/15 09:18:37;;;;;;;;;;;;;;;17.76;56.05176;101600.4;;;;-72
2023/04/15 09:23:30;;;;;;;;;;;;;;;17.93;55.75781;101598.8;;;;-72
2023/04/15 09:28:38;;;;;;;;;;;;;;;18.26;55.41211;101614.5;;;;-72
2023/04/15 09:33:27;;;;;;;;;;;;;;;18.71;55.20801;101619.8;;;;-71
2023/04/15 09:34:02;;;;;;;4.4;2.6;;;;;;;;;;;;;-72
2023/04/15 09:38:30;;;;;;;;;;;;;;;18.98;54.28711;101628.6;;;;-74
2023/04/15 09:43:37;;;;;;;;;;;;;;;18.98;54.41211;101630.2;;;;-73
2023/04/15 09:48:30;;;;;;;;;;;;;;;19.05;53.98926;101631.6;;;;-73
2023/04/15 09:53:48;;;;;;;;;;;;;;;19.13;54.06641;101640;;;;-73
2023/04/15 09:58:29;;;;;;;;;;;;;;;19.29;53.55176;101646.3;;;;-74
2023/04/15 10:03:28;;;;;;;;;;;;;;;19.48;53.35645;101653.8;;;;-72
2023/04/15 10:04:06;;;;;;;5.1;2.7;;;;;;;;;;;;;-74
2023/04/15 10:08:28;;;;;;;;;;;;;;;19.53;53.08984;101654.8;;;;-75
2023/04/15 10:13:29;;;;;;;;;;;;;;;19.42;52.83789;101669.4;;;;-74
2023/04/15 10:18:29;;;;;;;;;;;;;;;19.39;52.90332;101668.9;;;;-73
2023/04/15 10:23:31;;;;;;;;;;;;;;;19.51;52.58691;101676.8;;;;-74
2023/04/15 10:28:27;;;;;;;;;;;;;;;19.5;51.75488;101678.7;;;;-74
2023/04/15 10:33:28;;;;;;;;;;;;;;;19.35;52.06738;101685;;;;-74
2023/04/15 10:34:08;;;;;;;4;2.3;;;;;;;;;;;;;-73
2023/04/15 10:38:50;;;;;;;;;;;;;;;19.19;52.75293;101688.3;;;;-73
2023/04/15 10:43:32;;;;;;;;;;;;;;;19.06;51.94141;101691.4;;;;-74
2023/04/15 10:48:27;;;;;;;;;;;;;;;19.08;53.53711;101690.8;;;;-74
2023/04/15 10:53:36;;;;;;;;;;;;;;;19.18;52.95801;101705.1;;;;-73
2023/04/15 10:58:27;;;;;;;;;;;;;;;19;50.47852;101709.1;;;;-73
2023/04/15 11:03:40;;;;;;;;;;;;;;;18.78;52.30762;101712;;;;-73
2023/04/15 11:04:17;;;;;;;3.3;1.7;;;;;;;;;;;;;-73
2023/04/15 11:08:37;;;;;;;;;;;;;;;18.94;52.39453;101710.2;;;;-73
2023/04/15 11:13:36;;;;;;;;;;;;;;;19.03;54.05371;101715.8;;;;-72
2023/04/15 11:18:29;;;;;;;;;;;;;;;18.99;52.27539;101723.2;;;;-72
2023/04/15 11:23:33;;;;;;;;;;;;;;;18.99;54.40039;101731;;;;-72
2023/04/15 11:28:41;;;;;;;;;;;;;;;;;;;;;
2023/04/15 11:33:28;;;;;;;;;;;;;;;19.59;55.29492;101748.2;;;;-71
2023/04/15 11:34:14;;;;;;;3.5;1.6;;;;;;;;;;;;;-72
2023/04/15 11:38:30;;;;;;;;;;;;;;;19.45;54.28809;101752.6;;;;-71
2023/04/15 11:43:27;;;;;;;;;;;;;;;19.17;54.48145;101754.3;;;;-71
2023/04/15 11:48:29;;;;;;;;;;;;;;;19.11;55.08691;101760.1;;;;-72
2023/04/15 11:53:30;;;;;;;;;;;;;;;19.2;54.58691;101766;;;;-73
2023/04/15 11:58:28;;;;;;;;;;;;;;;19.21;55.26855;101761.2;;;;-72
2023/04/15 12:03:29;;;;;;;;;;;;;;;19.58;54.46191;101763.3;;;;-73
2023/04/15 12:04:22;;;;;;;3.4;1.3;;;;;;;;;;;;;-71
2023/04/15 12:08:30;;;;;;;;;;;;;;;19.89;54.19336;101768.1;;;;-72
2023/04/15 12:13:27;;;;;;;;;;;;;;;20.08;54.4209;101775.8;;;;-73
2023/04/15 12:18:28;;;;;;;;;;;;;;;20.18;52.17578;101768.1;;;;-73
2023/04/15 12:23:36;;;;;;;;;;;;;;;20.35;53.46191;101769;;;;-72
2023/04/15 12:28:28;;;;;;;;;;;;;;;20.3;53.60449;101780.2;;;;-72
2023/04/15 12:33:29;;;;;;;;;;;;;;;20.2;53.27344;101796.6;;;;-72
2023/04/15 12:34:23;;;;;;;3.5;1.3;;;;;;;;;;;;;-74
2023/04/15 12:38:30;;;;;;;;;;;;;;;20.22;52.96777;101802.4;;;;-72
2023/04/15 12:43:29;;;;;;;;;;;;;;;20.47;54.01172;101800.7;;;;-73
2023/04/15 12:48:30;;;;;;;;;;;;;;;20.43;54.31543;101810.1;;;;-73
2023/04/15 12:53:29;;;;;;;;;;;;;;;20.01;54.09277;101822.5;;;;-73
2023/04/15 12:58:28;;;;;;;;;;;;;;;19.8;53.97754;101825.5;;;;-74
2023/04/15 13:03:29;;;;;;;;;;;;;;;19.8;53.6123;101834.7;;;;-73
2023/04/15 13:04:29;;;;;;;2.8;1;;;;;;;;;;;;;-73
2023/04/15 13:08:27;;;;;;;;;;;;;;;19.7;53.69141;101830.2;;;;-73
2023/04/15 13:13:27;;;;;;;;;;;;;;;19.4;53.47363;101848.3;;;;-72
2023/04/15 13:18:29;;;;;;;;;;;;;;;19.05;53.94336;101850;;;;-72
2023/04/15 13:23:30;;;;;;;;;;;;;;;18.74;53.71191;101866.9;;;;-72
2023/04/15 13:28:30;;;;;;;;;;;;;;;18.48;55.30469;101878.9;;;;-72
2023/04/15 13:33:29;;;;;;;;;;;;;;;18.28;55.14355;101875.9;;;;-72
2023/04/15 13:34:30;;;;;;;3.6;1.1;;;;;;;;;;;;;-72
2023/04/15 13:38:28;;;;;;;;;;;;;;;18.14;55.7959;101882.1;;;;-74
2023/04/15 13:43:27;;;;;;;;;;;;;;;17.97;55.29785;101893.8;;;;-73
2023/04/15 13:48:30;;;;;;;;;;;;;;;17.73;55.48242;101895.6;;;;-72
2023/04/15 13:53:29;;;;;;;;;;;;;;;17.59;56.13379;101907.5;;;;-72
2023/04/15 13:58:30;;;;;;;;;;;;;;;17.38;56.37891;101904;;;;-72
2023/04/15 14:03:29;;;;;;;;;;;;;;;17.27;57.07715;101916.5;;;;-71
2023/04/15 14:04:30;;;;;;;3.8;1.1;;;;;;;;;;;;;-72
2023/04/15 14:08:28;;;;;;;;;;;;;;;17.11;56.29883;101926.9;;;;-72
2023/04/15 14:13:27;;;;;;;;;;;;;;;17.05;56.7666;101928.8;;;;-72
2023/04/15 14:18:28;;;;;;;;;;;;;;;17.07;57.52637;101937.4;;;;-72
2023/04/15 14:23:30;;;;;;;;;;;;;;;17;54.93848;101946.9;;;;-71
2023/04/15 14:28:30;;;;;;;;;;;;;;;16.8;56.83691;101946;;;;-71
2023/04/15 14:33:27;;;;;;;;;;;;;;;16.66;56.73926;101944.5;;;;-71
2023/04/15 14:34:33;;;;;;;3.4;1;;;;;;;;;;;;;-71
2023/04/15 14:38:30;;;;;;;;;;;;;;;16.58;56.56055;101951.4;;;;-73
2023/04/15 14:43:29;;;;;;;;;;;;;;;16.67;56.09766;101950.4;;;;-72
2023/04/15 14:48:27;;;;;;;;;;;;;;;16.73;56.38672;101954.1;;;;-71
2023/04/15 14:53:30;;;;;;;;;;;;;;;16.82;55.85547;101963.1;;;;-71
2023/04/15 14:58:32;;;;;;;;;;;;;;;16.91;55.58301;101965.1;;;;-73
2023/04/15 15:03:29;;;;;;;;;;;;;;;16.97;55.88574;101972.8;;;;-73
2023/04/15 15:04:36;;;;;;;4.4;1.1;;;;;;;;;;;;;-72
2023/04/15 15:08:29;;;;;;;;;;;;;;;17.02;55.89063;101985;;;;-71
2023/04/15 15:13:30;;;;;;;;;;;;;;;16.91;55.84375;101986.8;;;;-71
2023/04/15 15:18:28;;;;;;;;;;;;;;;16.63;56.43066;101986.9;;;;-72
2023/04/15 15:23:29;;;;;;;;;;;;;;;16.55;56.72559;102005.8;;;;-72
2023/04/15 15:28:31;;;;;;;;;;;;;;;16.6;56.12207;102013;;;;-72
2023/04/15 15:33:29;;;;;;;;;;;;;;;16.53;55.75098;102020.8;;;;-72
2023/04/15 15:34:38;;;;;;;4.6;1;;;;;;;;;;;;;-72
2023/04/15 15:38:29;;;;;;;;;;;;;;;16.36;56.13574;102023.9;;;;-72
2023/04/15 15:43:31;;;;;;;;;;;;;;;16.07;55.87305;102033.6;;;;-72
2023/04/15 15:48:33;;;;;;;;;;;;;;;15.86;56.59082;102033.9;;;;-75
2023/04/15 15:53:29;;;;;;;;;;;;;;;15.72;56.44824;102033;;;;-72
2023/04/15 15:58:27;;;;;;;;;;;;;;;15.52;56.59277;102047.3;;;;-71
2023/04/15 16:03:29;;;;;;;;;;;;;;;15.38;57.04785;102053.5;;;;-73
2023/04/15 16:04:42;;;;;;;4.7;0.9;;;;;;;;;;;;;-73
2023/04/15 16:08:27;;;;;;;;;;;;;;;15.22;57.23047;102061.3;;;;-73
2023/04/15 16:13:29;;;;;;;;;;;;;;;15.07;57.00879;102065.9;;;;-72
2023/04/15 16:18:27;;;;;;;;;;;;;;;14.97;57.89453;102069.2;;;;-72
2023/04/15 16:23:29;;;;;;;;;;;;;;;14.88;57.45508;102074;;;;-73
2023/04/15 16:28:31;;;;;;;;;;;;;;;14.74;58.35938;102076.6;;;;-73
2023/04/15 16:33:29;;;;;;;;;;;;;;;14.61;58.32031;102081.6;;;;-73
2023/04/15 16:34:45;;;;;;;3.2;0.9;;;;;;;;;;;;;-73
2023/04/15 16:38:32;;;;;;;;;;;;;;;14.45;58.78223;102090.1;;;;-73
2023/04/15 16:43:27;;;;;;;;;;;;;;;14.34;58.93555;102097.8;;;;-74
2023/04/15 16:48:29;;;;;;;;;;;;;;;14.22;59.40234;102102.6;;;;-73
2023/04/15 16:53:29;;;;;;;;;;;;;;;14.07;59.77441;102103.1;;;;-72
2023/04/15 16:58:28;;;;;;;;;;;;;;;13.89;59.77246;102113;;;;-72
2023/04/15 17:03:29;;;;;;;;;;;;;;;13.7;60.20703;102125.3;;;;-73
2023/04/15 17:04:45;;;;;;;3.9;1.1;;;;;;;;;;;;;-73
2023/04/15 17:08:29;;;;;;;;;;;;;;;13.56;60.56836;102130.8;;;;-72
2023/04/15 17:13:28;;;;;;;;;;;;;;;13.35;60.71875;102137.8;;;;-72
2023/04/15 17:18:28;;;;;;;;;;;;;;;13.23;60.69141;102130.8;;;;-72
2023/04/15 17:23:29;;;;;;;;;;;;;;;13.15;60.56836;102138.5;;;;-71
2023/04/15 17:28:29;;;;;;;;;;;;;;;13;61.35352;102134.2;;;;-73
2023/04/15 17:33:29;;;;;;;;;;;;;;;12.92;61.23047;102147.4;;;;-72
2023/04/15 17:34:47;;;;;;;5.4;0.9;;;;;;;;;;;;;-72
2023/04/15 17:38:29;;;;;;;;;;;;;;;12.88;61.77148;102155.1;;;;-73
2023/04/15 17:48:31;;;;;;;;;;;;;;;12.71;61.66895;102156.4;;;;-73
2023/04/15 17:53:29;;;;;;;;;;;;;;;12.59;61.36328;102153.4;;;;-72
2023/04/15 17:58:29;;;;;;;;;;;;;;;12.43;61.51953;102170.8;;;;-73
2023/04/15 18:03:27;;;;;;;;;;;;;;;12.35;61.23926;102167.5;;;;-72
2023/04/15 18:04:50;;;;;;;4.3;0.9;;;;;;;;;;;;;-72
2023/04/15 18:08:27;;;;;;;;;;;;;;;12.24;62.21875;102171.2;;;;-72
2023/04/15 18:13:36;;;;;;;;;;;;;;;12.16;62.12891;102176.9;;;;-71
2023/04/15 18:18:31;;;;;;;;;;;;;;;12.04;61.56641;102178.9;;;;-72
2023/04/15 18:23:30;;;;;;;;;;;;;;;11.89;62.30469;102186.8;;;;-72
2023/04/15 18:28:27;;;;;;;;;;;;;;;11.76;62.0957;102189.5;;;;-72
2023/04/15 18:33:27;;;;;;;;;;;;;;;11.65;62.34766;102188;;;;-72
2023/04/15 18:34:51;;;;;;;3.8;0.9;;;;;;;;;;;;;-73
2023/04/15 18:38:29;;;;;;;;;;;;;;;11.52;62.2627;102195.4;;;;-75
2023/04/15 18:43:27;;;;;;;;;;;;;;;11.44;62.16211;102212.6;;;;-76
2023/04/15 18:48:29;;;;;;;;;;;;;;;11.33;62.59082;102215;;;;-75
2023/04/15 18:53:29;;;;;;;;;;;;;;;11.22;62.55371;102213.7;;;;-76
2023/04/15 18:58:29;;;;;;;;;;;;;;;11.07;62.52246;102223;;;;-76
2023/04/15 19:03:27;;;;;;;;;;;;;;;10.99;62.89844;102227.2;;;;-75
2023/04/15 19:04:54;;;;;;;3.1;0.8;;;;;;;;;;;;;-76
2023/04/15 19:08:30;;;;;;;;;;;;;;;10.89;62.89355;102236.3;;;;-75
2023/04/15 19:13:28;;;;;;;;;;;;;;;10.79;63.09277;102243.8;;;;-74
2023/04/15 19:18:28;;;;;;;;;;;;;;;10.72;63.27051;102246.1;;;;-72
2023/04/15 19:23:29;;;;;;;;;;;;;;;10.66;63.18555;102246.4;;;;-75
2023/04/15 19:28:28;;;;;;;;;;;;;;;10.57;63.49414;102245.7;;;;-71
2023/04/15 19:33:30;;;;;;;;;;;;;;;10.48;63.46973;102250.3;;;;-72
2023/04/15 19:34:55;;;;;;;3.8;0.7;;;;;;;;;;;;;-72
2023/04/15 19:38:29;;;;;;;;;;;;;;;10.44;63.74121;102259.4;;;;-72
2023/04/15 19:43:28;;;;;;;;;;;;;;;10.34;63.97266;102262;;;;-73
2023/04/15 19:48:27;;;;;;;;;;;;;;;10.29;63.79785;102259.1;;;;-74
2023/04/15 19:53:30;;;;;;;;;;;;;;;10.27;64.06055;102266.7;;;;-72
2023/04/15 19:58:28;;;;;;;;;;;;;;;10.2;64.20801;102265.2;;;;-72
2023/04/15 20:03:27;;;;;;;;;;;;;;;10.15;64.56641;102268;;;;-73
2023/04/15 20:05:03;;;;;;;2.4;0.7;;;;;;;;;;;;;-73
2023/04/15 20:08:30;;;;;;;;;;;;;;;10.1;64.68066;102278.9;;;;-73
2023/04/15 20:13:29;;;;;;;;;;;;;;;10.06;64.73047;102270;;;;-71
2023/04/15 20:18:27;;;;;;;;;;;;;;;10;65.12207;102268.5;;;;-72
2023/04/15 20:23:28;;;;;;;;;;;;;;;9.97;65.49316;102270.9;;;;-72
2023/04/15 20:28:27;;;;;;;;;;;;;;;9.95;65.25879;102274.7;;;;-71
2023/04/15 20:33:28;;;;;;;;;;;;;;;9.89;65.69238;102275.3;;;;-72
2023/04/15 20:35:00;;;;;;;3.4;0.9;;;;;;;;;;;;;-72
2023/04/15 20:38:27;;;;;;;;;;;;;;;9.84;65.99512;102278;;;;-71
2023/04/15 20:43:28;;;;;;;;;;;;;;;9.79;66.19922;102275.3;;;;-73
2023/04/15 20:48:27;;;;;;;;;;;;;;;9.78;65.96484;102275.7;;;;-72
2023/04/15 20:53:27;;;;;;;;;;;;;;;9.76;65.98438;102276.4;;;;-72
2023/04/15 20:58:30;;;;;;;;;;;;;;;9.73;66.12305;102276.8;;;;-73
2023/04/15 21:03:29;;;;;;;;;;;;;;;9.71;66.26465;102280.4;;;;-73
2023/04/15 21:04:59;;;;;;;3.2;0.7;;;;;;;;;;;;;-72
2023/04/15 21:08:28;;;;;;;;;;;;;;;9.68;66.1709;102281.2;;;;-73
2023/04/15 21:13:27;;;;;;;;;;;;;;;9.67;65.98145;102282.5;;;;-73
2023/04/15 21:18:30;;;;;;;;;;;;;;;9.61;66.94727;102283.6;;;;-72
2023/04/15 21:23:27;;;;;;;;;;;;;;;9.61;66.55957;102289.1;;;;-73
2023/04/15 21:28:28;;;;;;;;;;;;;;;9.58;66.56738;102291.7;;;;-71
2023/04/15 21:33:29;;;;;;;;;;;;;;;9.57;66.90723;102296;;;;-73
2023/04/15 21:35:03;;;;;;;2.5;0.8;;;;;;;;;;;;;-72
2023/04/15 21:38:27;;;;;;;;;;;;;;;9.55;66.7627;102303.9;;;;-74
2023/04/15 21:43:27;;;;;;;;;;;;;;;9.54;67.11523;102303.7;;;;-72
2023/04/15 21:48:29;;;;;;;;;;;;;;;9.52;67.42285;102303;;;;-72
2023/04/15 21:53:27;;;;;;;;;;;;;;;9.52;67.33203;102306.5;;;;-73
2023/04/15 21:58:27;;;;;;;;;;;;;;;9.49;67.82813;102309.2;;;;-72
2023/04/15 22:03:27;;;;;;;;;;;;;;;9.48;67.83594;102310.5;;;;-72
2023/04/15 22:05:02;;;;;;;6.2;1.2;;;;;;;;;;;;;-72
2023/04/15 22:08:28;;;;;;;;;;;;;;;9.47;67.81445;102317.8;;;;-72
2023/04/15 22:13:27;;;;;;;;;;;;;;;9.47;67.85547;102322;;;;-72
2023/04/15 22:18:27;;;;;;;;;;;;;;;9.45;67.80859;102321.6;;;;-73
2023/04/15 22:23:30;;;;;;;;;;;;;;;9.43;68.52734;102323.5;;;;-72
2023/04/15 22:33:30;;;;;;;;;;;;;;;9.39;68.1875;102324.6;;;;-73
2023/04/15 22:35:05;;;;;;;4.1;1.2;;;;;;;;;;;;;-73
2023/04/15 22:38:27;;;;;;;;;;;;;;;9.36;68.77051;102325.4;;;;-74
2023/04/15 22:43:27;;;;;;;;;;;;;;;9.35;68.22656;102338.5;;;;-73
2023/04/15 22:48:27;;;;;;;;;;;;;;;9.34;68.93164;102345;;;;-73
2023/04/15 22:53:28;;;;;;;;;;;;;;;9.29;69.13477;102354.8;;;;-73
2023/04/15 22:58:30;;;;;;;;;;;;;;;9.29;69.75488;102357.5;;;;-73
2023/04/15 23:03:28;;;;;;;;;;;;;;;9.26;69.76172;102363.3;;;;-73
2023/04/15 23:05:07;;;;;;;5.1;1;;;;;;;;;;;;;-73
2023/04/15 23:08:28;;;;;;;;;;;;;;;9.21;69.82031;102370;;;;-73
2023/04/15 23:13:27;;;;;;;;;;;;;;;9.18;70.08008;102373.8;;;;-72
2023/04/15 23:18:27;;;;;;;;;;;;;;;9.16;70.14355;102374.8;;;;-73
2023/04/15 23:23:27;;;;;;;;;;;;;;;9.13;70.10645;102376.3;;;;-73
2023/04/15 23:28:28;;;;;;;;;;;;;;;9.09;70.59766;102377.4;;;;-73
2023/04/15 23:33:27;;;;;;;;;;;;;;;9.09;70.92871;102381.2;;;;-72
2023/04/15 23:35:06;;;;;;;5.3;1.4;;;;;;;;;;;;;-72
2023/04/15 23:38:27;;;;;;;;;;;;;;;9.06;70.19434;102382.9;;;;-73
2023/04/15 23:43:30;;;;;;;;;;;;;;;9.03;70.70898;102385.8;;;;-74
2023/04/15 23:48:28;;;;;;;;;;;;;;;9;70.77148;102383;;;;-73
2023/04/15 23:53:28;;;;;;;;;;;;;;;8.99;70.87891;102379;;;;-73
2023/04/15 23:58:27;;;;;;;;;;;;;;;8.98;71.07813;102383.8;;;;-73
